createdAt,value
2023-05-22T00:00:52.860Z,18.39
2023-05-22T00:03:47.113Z,18.37
2023-05-22T00:06:43.539Z,18.38
2023-05-22T00:09:37.682Z,18.37
2023-05-22T00:12:31.773Z,18.35
2023-05-22T00:15:26.062Z,18.38
2023-05-22T00:18:19.992Z,18.35
2023-05-22T00:21:14.185Z,18.37
2023-05-22T00:24:09.458Z,18.36
2023-05-22T00:27:03.647Z,18.36
2023-05-22T00:29:57.389Z,18.32
2023-05-22T00:32:51.453Z,18.30
2023-05-22T00:35:45.753Z,18.27
2023-05-22T00:38:40.207Z,18.28
2023-05-22T00:41:42.601Z,18.25
2023-05-22T00:44:36.849Z,18.25
2023-05-22T00:47:32.380Z,18.24
2023-05-22T00:50:26.787Z,18.22
2023-05-22T00:53:23.100Z,18.21
2023-05-22T00:56:17.807Z,18.21
2023-05-22T00:59:11.990Z,18.21
2023-05-22T01:02:06.680Z,18.19
2023-05-22T01:05:00.740Z,18.16
2023-05-22T01:07:54.943Z,18.16
2023-05-22T01:10:51.750Z,18.14
2023-05-22T01:13:54.991Z,18.15
2023-05-22T01:17:01.560Z,18.14
2023-05-22T01:20:12.165Z,18.15
2023-05-22T01:24:01.880Z,18.10
2023-05-22T01:27:36.214Z,18.07
2023-05-22T01:30:54.477Z,18.05
2023-05-22T01:33:54.232Z,18.03
2023-05-22T01:36:49.802Z,18.02
2023-05-22T01:39:44.791Z,18.01
2023-05-22T01:42:41.175Z,17.98
2023-05-22T01:45:35.247Z,17.95
2023-05-22T01:48:29.635Z,17.92
2023-05-22T01:51:32.700Z,17.89
2023-05-22T01:54:36.212Z,17.86
2023-05-22T01:57:57.163Z,17.85
2023-05-22T02:00:54.826Z,17.82
2023-05-22T02:03:48.376Z,17.79
2023-05-22T02:06:43.840Z,17.78
2023-05-22T02:09:39.119Z,17.76
2023-05-22T02:12:34.405Z,17.73
2023-05-22T02:15:28.509Z,17.73
2023-05-22T02:18:31.147Z,17.74
2023-05-22T02:21:26.388Z,17.69
2023-05-22T02:24:20.916Z,17.68
2023-05-22T02:27:15.299Z,17.66
2023-05-22T02:30:11.859Z,17.65
2023-05-22T02:33:06.710Z,17.64
2023-05-22T02:36:01.262Z,17.60
2023-05-22T02:38:55.563Z,17.57
2023-05-22T02:41:50.183Z,17.57
2023-05-22T02:44:44.231Z,17.52
2023-05-22T02:47:38.412Z,17.55
2023-05-22T02:50:32.477Z,17.54
2023-05-22T02:53:26.985Z,17.54
2023-05-22T02:56:22.098Z,17.52
2023-05-22T02:59:16.544Z,17.51
2023-05-22T03:02:12.253Z,17.51
2023-05-22T03:05:08.100Z,17.51
2023-05-22T03:08:02.316Z,17.48
2023-05-22T03:10:56.586Z,17.48
2023-05-22T03:13:50.622Z,17.45
2023-05-22T03:16:44.853Z,17.40
2023-05-22T03:19:39.116Z,17.36
2023-05-22T03:22:33.412Z,17.33
2023-05-22T03:25:27.511Z,17.32
2023-05-22T03:28:21.946Z,17.34
2023-05-22T03:31:16.355Z,17.31
2023-05-22T03:34:10.764Z,17.32
2023-05-22T03:37:04.751Z,17.30
2023-05-22T03:39:58.562Z,17.31
2023-05-22T03:42:52.532Z,17.31
2023-05-22T03:45:46.706Z,17.31
2023-05-22T03:48:40.823Z,17.30
2023-05-22T03:51:34.917Z,17.31
2023-05-22T03:54:28.845Z,17.30
2023-05-22T03:57:23.130Z,17.31
2023-05-22T04:00:19.788Z,17.32
2023-05-22T04:03:13.892Z,17.32
2023-05-22T04:06:08.587Z,17.33
2023-05-22T04:09:03.119Z,17.34
2023-05-22T04:11:56.934Z,17.35
2023-05-22T04:14:44.196Z,17.39
2023-05-22T04:17:42.648Z,17.43
2023-05-22T04:20:37.337Z,17.43
2023-05-22T04:23:32.106Z,17.45
2023-05-22T04:26:26.214Z,17.46
2023-05-22T04:29:22.428Z,17.46
2023-05-22T04:32:18.553Z,17.46
2023-05-22T04:35:13.351Z,17.45
2023-05-22T04:38:07.488Z,17.48
2023-05-22T04:41:02.368Z,17.52
2023-05-22T04:43:56.541Z,17.55
2023-05-22T04:46:51.260Z,17.66
2023-05-22T04:49:45.734Z,17.60
2023-05-22T04:52:39.758Z,17.57
2023-05-22T04:55:34.967Z,17.76
2023-05-22T04:58:29.435Z,17.76
2023-05-22T05:01:25.018Z,17.91
2023-05-22T05:04:19.158Z,17.86
2023-05-22T05:07:13.615Z,17.89
2023-05-22T05:10:08.857Z,17.90
2023-05-22T05:13:03.248Z,17.84
2023-05-22T05:15:58.669Z,17.95
2023-05-22T05:18:53.587Z,18.12
2023-05-22T05:21:56.944Z,18.25
2023-05-22T05:24:53.450Z,18.26
2023-05-22T05:28:11.438Z,18.20
2023-05-22T05:31:05.853Z,18.06
2023-05-22T05:34:00.711Z,18.22
2023-05-22T05:36:57.207Z,18.13
2023-05-22T05:39:51.184Z,18.21
2023-05-22T05:42:45.358Z,18.17
2023-05-22T05:45:39.714Z,18.36
2023-05-22T05:48:33.710Z,18.34
2023-05-22T05:51:52.994Z,18.43
2023-05-22T05:54:48.213Z,18.40
2023-05-22T05:57:42.347Z,18.37
2023-05-22T06:00:38.319Z,18.47
2023-05-22T06:03:33.206Z,18.46
2023-05-22T06:06:30.053Z,18.45
2023-05-22T06:09:24.303Z,18.50
2023-05-22T06:12:18.600Z,18.47
2023-05-22T06:15:13.727Z,18.49
2023-05-22T06:18:08.131Z,18.51
2023-05-22T06:21:02.153Z,18.52
2023-05-22T06:23:55.961Z,18.58
2023-05-22T06:26:50.157Z,18.58
2023-05-22T06:29:41.763Z,18.57
2023-05-22T06:32:36.167Z,18.56
2023-05-22T06:35:30.150Z,18.55
2023-05-22T06:38:24.187Z,18.62
2023-05-22T06:41:18.151Z,18.63
2023-05-22T06:44:12.277Z,18.61
2023-05-22T06:47:06.221Z,18.64
2023-05-22T06:50:00.329Z,18.65
2023-05-22T06:52:54.838Z,18.66
2023-05-22T06:55:48.797Z,18.59
2023-05-22T06:58:43.209Z,18.67
2023-05-22T07:01:37.456Z,18.69
2023-05-22T07:04:31.401Z,18.74
2023-05-22T07:07:25.932Z,18.71
2023-05-22T07:10:19.881Z,18.74
2023-05-22T07:13:14.150Z,18.78
2023-05-22T07:16:08.764Z,18.71
2023-05-22T07:19:03.555Z,18.78
2023-05-22T07:21:58.693Z,18.79
2023-05-22T07:24:52.855Z,18.72
2023-05-22T07:27:47.177Z,18.74
2023-05-22T07:30:41.970Z,18.70
2023-05-22T07:33:36.406Z,18.78
2023-05-22T07:36:30.365Z,18.82
2023-05-22T07:39:24.420Z,18.74
2023-05-22T07:42:18.816Z,18.73
2023-05-22T07:45:14.442Z,18.75
2023-05-22T07:48:09.279Z,18.79
2023-05-22T07:51:04.311Z,18.90
2023-05-22T07:56:53.293Z,18.87
2023-05-22T07:59:47.630Z,18.89
2023-05-22T08:02:41.910Z,18.94
2023-05-22T08:05:36.182Z,18.89
2023-05-22T08:08:31.801Z,18.85
2023-05-22T08:11:26.477Z,18.80
2023-05-22T08:14:20.546Z,18.92
2023-05-22T08:17:14.459Z,18.85
2023-05-22T08:20:11.767Z,18.84
2023-05-22T08:23:05.795Z,18.84
2023-05-22T08:25:59.972Z,18.84
2023-05-22T08:28:53.814Z,18.81
2023-05-22T08:31:48.330Z,18.82
2023-05-22T08:34:42.829Z,18.85
2023-05-22T08:37:37.150Z,18.85
2023-05-22T08:40:41.902Z,18.87
2023-05-22T08:43:40.652Z,18.81
2023-05-22T08:46:38.190Z,18.75
2023-05-22T08:49:33.102Z,18.85
2023-05-22T08:52:40.551Z,18.84
2023-05-22T08:55:34.563Z,18.86
2023-05-22T08:58:29.309Z,19.02
2023-05-22T09:01:23.891Z,18.85
2023-05-22T09:04:18.723Z,18.93
2023-05-22T09:07:14.590Z,18.84
2023-05-22T09:10:09.538Z,18.77
2023-05-22T09:13:08.274Z,18.87
2023-05-22T09:16:23.946Z,18.85
2023-05-22T09:19:25.460Z,18.93
2023-05-22T09:22:20.407Z,18.98
2023-05-22T09:25:20.814Z,18.95
2023-05-22T09:28:15.488Z,18.88
2023-05-22T09:31:09.647Z,18.94
2023-05-22T09:34:06.535Z,18.81
2023-05-22T09:37:06.934Z,19.24
2023-05-22T09:40:06.049Z,19.39
2023-05-22T09:43:00.233Z,19.14
2023-05-22T09:45:59.156Z,19.11
2023-05-22T09:48:57.413Z,18.98
2023-05-22T09:51:55.417Z,18.96
2023-05-22T09:54:55.314Z,18.87
2023-05-22T09:57:52.341Z,18.89
2023-05-22T10:00:47.271Z,18.86
2023-05-22T10:03:42.162Z,18.86
2023-05-22T10:06:37.836Z,18.90
2023-05-22T10:09:35.701Z,18.88
2023-05-22T10:12:34.249Z,18.92
2023-05-22T10:15:28.545Z,18.96
2023-05-22T10:18:22.934Z,18.94
2023-05-22T10:21:18.543Z,18.90
2023-05-22T10:24:14.408Z,18.94
2023-05-22T10:27:08.665Z,18.96
2023-05-22T10:30:19.947Z,18.97
2023-05-22T10:33:19.110Z,19.05
2023-05-22T10:36:36.940Z,19.05
2023-05-22T10:39:44.233Z,19.18
2023-05-22T10:42:40.010Z,19.14
2023-05-22T10:45:34.144Z,19.14
2023-05-22T10:48:27.947Z,19.11
2023-05-22T10:51:24.531Z,19.14
2023-05-22T10:54:18.473Z,19.17
2023-05-22T10:57:17.289Z,19.18
2023-05-22T11:00:21.227Z,19.11
2023-05-22T11:03:18.207Z,19.09
2023-05-22T11:06:32.538Z,19.15
2023-05-22T11:09:32.451Z,19.08
2023-05-22T11:12:30.904Z,19.09
2023-05-22T11:15:49.200Z,19.14
2023-05-22T11:18:45.210Z,19.06
2023-05-22T11:21:45.719Z,19.08
2023-05-22T11:24:41.300Z,19.28
2023-05-22T11:27:36.444Z,19.15
2023-05-22T11:30:31.785Z,19.12
2023-05-22T11:33:26.788Z,19.16
2023-05-22T11:36:21.331Z,19.15
2023-05-22T11:39:18.266Z,19.36
2023-05-22T11:42:12.844Z,19.36
2023-05-22T11:45:08.627Z,19.23
2023-05-22T11:48:02.833Z,19.12
2023-05-22T11:50:58.175Z,19.28
2023-05-22T11:53:52.413Z,19.23
2023-05-22T11:56:46.286Z,19.28
2023-05-22T11:59:40.484Z,19.12
2023-05-22T12:02:35.244Z,19.14
2023-05-22T12:05:29.434Z,19.07
2023-05-22T12:08:23.870Z,19.03
2023-05-22T12:11:17.745Z,19.09
2023-05-22T12:14:14.115Z,19.07
2023-05-22T12:17:08.572Z,19.07
2023-05-22T12:20:02.385Z,19.03
2023-05-22T12:22:59.027Z,19.11
2023-05-22T12:26:01.993Z,19.06
2023-05-22T12:28:58.827Z,19.08
2023-05-22T12:31:53.295Z,19.08
2023-05-22T12:34:51.232Z,19.08
2023-05-22T12:37:51.195Z,19.07
2023-05-22T12:40:45.419Z,19.07
2023-05-22T12:43:39.345Z,19.10
2023-05-22T12:46:33.827Z,19.06
2023-05-22T12:49:28.230Z,19.07
2023-05-22T12:52:22.505Z,19.07
2023-05-22T12:55:16.760Z,19.10
2023-05-22T12:58:10.635Z,19.09
2023-05-22T13:01:04.806Z,19.08
2023-05-22T13:03:58.949Z,19.07
2023-05-22T13:06:53.134Z,19.04
2023-05-22T13:09:47.305Z,19.02
2023-05-22T13:12:41.759Z,19.02
2023-05-22T13:15:36.277Z,19.03
2023-05-22T13:18:30.700Z,19.09
2023-05-22T13:21:26.455Z,19.11
2023-05-22T13:24:20.471Z,19.08
2023-05-22T13:27:14.314Z,19.01
2023-05-22T13:30:10.073Z,19.02
2023-05-22T13:33:03.991Z,19.03
2023-05-22T13:35:58.020Z,19.04
2023-05-22T13:38:52.199Z,19.02
2023-05-22T13:41:46.438Z,19.13
2023-05-22T13:44:40.396Z,19.15
2023-05-22T13:47:34.838Z,19.34
2023-05-22T13:50:29.065Z,19.38
2023-05-22T13:53:23.077Z,19.21
2023-05-22T13:56:17.382Z,19.17
2023-05-22T13:59:11.735Z,19.44
2023-05-22T14:02:05.934Z,19.17
2023-05-22T14:05:00.198Z,19.20
2023-05-22T14:07:54.202Z,19.26
2023-05-22T14:10:48.481Z,19.16
2023-05-22T14:13:42.520Z,19.18
2023-05-22T14:16:36.514Z,19.16
2023-05-22T14:19:30.754Z,19.23
2023-05-22T14:22:25.207Z,19.16
2023-05-22T14:25:19.406Z,19.19
2023-05-22T14:28:14.050Z,19.16
2023-05-22T14:31:08.547Z,19.21
2023-05-22T14:34:02.649Z,19.21
2023-05-22T14:36:58.344Z,19.19
2023-05-22T14:39:52.232Z,19.17
2023-05-22T14:42:46.391Z,19.20
2023-05-22T14:45:40.495Z,19.11
2023-05-22T14:48:34.825Z,19.14
2023-05-22T14:51:28.855Z,19.04
2023-05-22T14:54:23.831Z,19.13
2023-05-22T14:57:18.331Z,19.16
2023-05-22T15:00:15.264Z,19.14
2023-05-22T15:03:09.524Z,19.19
2023-05-22T15:06:03.991Z,19.16
2023-05-22T15:08:58.201Z,19.17
2023-05-22T15:11:55.774Z,19.22
2023-05-22T15:14:49.743Z,19.19
2023-05-22T15:17:43.828Z,19.17
2023-05-22T15:20:37.978Z,19.24
2023-05-22T15:23:32.150Z,19.16
2023-05-22T15:26:26.259Z,19.15
2023-05-22T15:29:20.827Z,19.17
2023-05-22T15:32:15.303Z,19.19
2023-05-22T15:35:11.614Z,19.15
2023-05-22T15:38:06.129Z,19.15
2023-05-22T15:41:00.194Z,19.16
2023-05-22T15:43:55.195Z,19.20
2023-05-22T15:46:49.086Z,19.17
2023-05-22T15:49:43.728Z,19.16
2023-05-22T15:52:38.322Z,19.15
2023-05-22T15:55:33.513Z,19.17
2023-05-22T15:58:28.509Z,19.15
2023-05-22T16:01:22.511Z,19.05
2023-05-22T16:04:16.405Z,19.14
2023-05-22T16:07:10.750Z,19.15
2023-05-22T16:10:05.000Z,19.13
2023-05-22T16:12:58.877Z,19.21
2023-05-22T16:15:53.185Z,19.21
2023-05-22T16:18:47.663Z,19.33
2023-05-22T16:21:42.070Z,19.25
2023-05-22T16:24:36.500Z,19.18
2023-05-22T16:27:30.604Z,19.32
2023-05-22T16:30:24.778Z,19.24
2023-05-22T16:33:18.775Z,19.20
2023-05-22T16:36:13.257Z,19.15
2023-05-22T16:39:07.196Z,19.19
2023-05-22T16:42:01.436Z,19.18
2023-05-22T16:44:55.480Z,19.16
2023-05-22T16:47:33.140Z,19.22
2023-05-22T16:50:27.416Z,19.21
2023-05-22T16:53:21.723Z,19.18
2023-05-22T16:56:20.186Z,19.15
2023-05-22T16:59:13.986Z,19.24
2023-05-22T17:02:08.265Z,19.14
2023-05-22T17:05:02.323Z,19.08
2023-05-22T17:07:56.464Z,19.13
2023-05-22T17:10:50.726Z,19.18
2023-05-22T17:13:44.860Z,19.17
2023-05-22T17:16:38.964Z,19.20
2023-05-22T17:19:33.392Z,19.21
2023-05-22T17:22:27.309Z,19.18
2023-05-22T17:25:21.630Z,19.23
2023-05-22T17:28:15.837Z,19.20
2023-05-22T17:31:09.902Z,19.22
2023-05-22T17:34:05.083Z,19.17
2023-05-22T17:36:59.339Z,19.18
2023-05-22T17:39:53.030Z,19.16
2023-05-22T17:42:47.092Z,19.15
2023-05-22T17:45:41.847Z,19.18
2023-05-22T17:48:36.580Z,19.20
2023-05-22T17:51:30.913Z,19.17
2023-05-22T17:54:24.989Z,19.20
2023-05-22T17:57:19.441Z,19.19
2023-05-22T18:00:17.634Z,19.14
2023-05-22T18:03:12.469Z,19.28
2023-05-22T18:06:06.907Z,19.24
2023-05-22T18:09:02.201Z,19.20
2023-05-22T18:11:58.806Z,19.23
2023-05-22T18:14:53.059Z,19.23
2023-05-22T18:17:47.302Z,19.26
2023-05-22T18:20:41.763Z,19.23
2023-05-22T18:23:36.380Z,19.17
2023-05-22T18:26:31.437Z,19.16
2023-05-22T18:29:25.678Z,19.17
2023-05-22T18:32:19.706Z,19.19
2023-05-22T18:35:13.987Z,19.21
2023-05-22T18:38:08.157Z,19.21
2023-05-22T18:41:02.283Z,19.17
2023-05-22T18:43:57.336Z,19.23
2023-05-22T18:46:51.671Z,19.25
2023-05-22T18:49:46.972Z,19.27
2023-05-22T18:52:42.537Z,19.19
2023-05-22T18:55:37.608Z,19.23
2023-05-22T18:58:33.065Z,19.30
2023-05-22T19:01:27.647Z,19.18
2023-05-22T19:04:21.696Z,19.21
2023-05-22T19:07:16.792Z,19.22
2023-05-22T19:10:15.503Z,19.29
2023-05-22T19:13:09.610Z,19.27
2023-05-22T19:16:05.156Z,19.29
2023-05-22T19:18:59.389Z,19.19
2023-05-22T19:21:53.852Z,19.20
2023-05-22T19:24:49.084Z,19.27
2023-05-22T19:27:44.658Z,19.20
2023-05-22T19:30:41.341Z,19.15
2023-05-22T19:33:37.481Z,19.19
2023-05-22T19:36:31.567Z,19.20
2023-05-22T19:39:26.022Z,19.15
2023-05-22T19:42:19.888Z,19.16
2023-05-22T19:45:14.684Z,19.06
2023-05-22T19:48:09.705Z,19.18
2023-05-22T19:51:05.190Z,19.24
2023-05-22T19:53:59.366Z,19.25
2023-05-22T19:56:53.484Z,19.28
2023-05-22T19:59:48.263Z,19.27
2023-05-22T20:02:43.129Z,19.15
2023-05-22T20:05:38.004Z,19.04
2023-05-22T20:08:32.575Z,19.03
2023-05-22T20:11:29.470Z,18.97
2023-05-22T20:14:23.171Z,18.94
2023-05-22T20:17:21.862Z,18.88
2023-05-22T20:20:16.469Z,18.89
2023-05-22T20:23:10.571Z,18.88
2023-05-22T20:26:05.234Z,18.97
2023-05-22T20:28:59.228Z,18.97
2023-05-22T20:31:54.996Z,18.93
2023-05-22T20:34:52.496Z,18.86
2023-05-22T20:37:46.660Z,18.88
2023-05-22T20:40:42.385Z,18.92
2023-05-22T20:43:36.616Z,18.81
2023-05-22T20:46:31.864Z,18.80
2023-05-22T20:49:26.586Z,18.99
2023-05-22T20:52:21.186Z,18.98
2023-05-22T20:55:15.664Z,19.07
2023-05-22T20:58:09.620Z,19.04
2023-05-22T21:01:03.907Z,18.80
2023-05-22T21:03:58.430Z,18.55
2023-05-22T21:06:52.363Z,18.62
2023-05-22T21:09:47.364Z,18.97
2023-05-22T21:12:41.461Z,19.04
2023-05-22T21:15:35.546Z,19.02
2023-05-22T21:18:29.758Z,18.90
2023-05-22T21:21:23.784Z,18.96
2023-05-22T21:24:17.602Z,18.92
2023-05-22T21:27:11.739Z,18.86
2023-05-22T21:30:05.955Z,18.89
2023-05-22T21:33:01.127Z,18.90
2023-05-22T21:35:55.751Z,18.72
2023-05-22T21:38:50.250Z,18.70
2023-05-22T21:41:44.241Z,18.80
2023-05-22T21:44:38.339Z,18.97
2023-05-22T21:47:32.618Z,18.90
2023-05-22T21:50:26.894Z,18.86
2023-05-22T21:53:21.982Z,18.95
2023-05-22T21:56:25.921Z,18.73
2023-05-22T21:59:28.822Z,18.62
2023-05-22T22:02:23.077Z,18.57
2023-05-22T22:05:12.740Z,18.54
2023-05-22T22:08:07.624Z,18.52
2023-05-22T22:11:01.891Z,18.49
2023-05-22T22:13:56.367Z,18.48
2023-05-22T22:16:54.197Z,18.45
2023-05-22T22:19:43.154Z,18.46
2023-05-22T22:22:37.067Z,18.45
2023-05-22T22:25:31.552Z,18.44
2023-05-22T22:28:25.644Z,18.42
2023-05-22T22:31:19.656Z,18.40
2023-05-22T22:34:13.677Z,18.42
2023-05-22T22:37:08.174Z,18.39
2023-05-22T22:40:01.988Z,18.36
2023-05-22T22:42:55.901Z,18.35
2023-05-22T22:45:49.898Z,18.36
2023-05-22T22:48:44.582Z,18.33
2023-05-22T22:51:38.662Z,18.31
2023-05-22T22:54:33.092Z,18.35
2023-05-22T22:57:27.354Z,18.29
2023-05-22T23:00:22.608Z,18.27
2023-05-22T23:03:16.778Z,18.26
2023-05-22T23:06:10.991Z,18.26
2023-05-22T23:09:04.977Z,18.24
2023-05-22T23:11:59.266Z,18.21
2023-05-22T23:14:54.311Z,18.18
2023-05-22T23:17:50.153Z,18.18
2023-05-22T23:20:46.277Z,18.19
2023-05-22T23:23:40.931Z,18.16
2023-05-22T23:26:35.208Z,18.16
2023-05-22T23:29:29.316Z,18.14
2023-05-22T23:32:23.750Z,18.14
2023-05-22T23:35:18.323Z,18.12
2023-05-22T23:38:12.355Z,18.11
2023-05-22T23:41:06.793Z,18.11
2023-05-22T23:44:00.734Z,18.09
2023-05-22T23:46:39.651Z,18.07
2023-05-22T23:49:33.957Z,18.08
2023-05-22T23:52:27.823Z,18.04
2023-05-22T23:55:22.398Z,18.03
2023-05-22T23:58:17.039Z,18.00
